To NAV CANADA Home Page Login to a new session Search on AWWS site Feedback and Comments Disclaimer Vers la page française équivalente Tips FAQ What's new on the site To the Forecasts and Observations / NOTAM section To "File a Flight Plan" website Publications and other links Update of the User's profile FIC Telephone Numbers My Weather Data Folder Route Weather Data Regional Weather Data Local Weather Data To the Forecasts and Observations / NOTAM section
Request Generated 03/06/2015 at 12:33:33 UTC . Weather information available at that time is displayed.

METAR/TAF

LA RONGE/LA RONGE (BARBER FIELD)/SK    

METAR CYVC 061200Z 17002KT 15SM SCT030 M08/M11 A2973 RMK SC4 SLP094=
METAR CYVC 061100Z 19005KT 15SM BKN030 M06/M09 A2975 RMK SC7 SLP098=
METAR CYVC 061000Z 16003KT 15SM OVC030 M05/M09 A2978 RMK SC8 SLP108=

TAF CYVC 060638Z 0607/0619 VRB03KT P6SM OVC050 TEMPO 0607/0613 5SM
-SN BKN020 OVC050
FM061300 24012KT P6SM SCT050 TEMPO 0613/0619 BKN050
BECMG 0614/0616 28010KT
RMK NXT FCST BY 061300Z=
Your time UTC time
Weather data provided by Environment Canada and NAV CANADA